createdAt,value
2022-11-07T00:04:42.255Z,27.35
2022-11-07T00:09:45.046Z,22.57
2022-11-07T00:14:48.055Z,25.52
2022-11-07T00:19:50.686Z,23.10
2022-11-07T00:24:53.266Z,25.23
2022-11-07T00:29:55.939Z,23.55
2022-11-07T00:34:58.603Z,26.23
2022-11-07T00:40:01.241Z,16.25
2022-11-07T00:45:04.309Z,23.27
2022-11-07T00:50:08.230Z,21.17
2022-11-07T00:55:10.939Z,23.15
2022-11-07T01:00:13.960Z,25.00
2022-11-07T01:05:16.649Z,21.67
2022-11-07T01:10:19.355Z,18.03
2022-11-07T01:15:22.037Z,29.40
2022-11-07T01:20:24.695Z,60.47
2022-11-07T01:25:27.404Z,43.87
2022-11-07T01:30:30.016Z,52.72
2022-11-07T01:35:36.861Z,26.93
2022-11-07T01:41:02.126Z,22.85
2022-11-07T01:46:04.885Z,26.80
2022-11-07T01:51:08.315Z,29.27
2022-11-07T01:56:16.575Z,41.63
2022-11-07T02:01:19.414Z,20.20
2022-11-07T02:06:45.991Z,32.75
2022-11-07T02:11:48.785Z,34.80
2022-11-07T02:16:51.559Z,34.77
2022-11-07T02:22:14.078Z,39.13
2022-11-07T02:27:20.235Z,62.27
2022-11-07T02:32:23.055Z,39.80
2022-11-07T02:37:38.719Z,55.38
2022-11-07T02:42:44.184Z,33.10
2022-11-07T02:47:46.910Z,40.17
2022-11-07T02:52:49.711Z,21.40
2022-11-07T02:57:53.115Z,41.17
2022-11-07T03:02:55.869Z,29.50
2022-11-07T03:07:58.602Z,31.63
2022-11-07T03:13:02.315Z,27.60
2022-11-07T03:18:05.035Z,21.83
2022-11-07T03:23:07.727Z,18.70
2022-11-07T03:28:10.395Z,16.55
2022-11-07T03:33:13.350Z,15.10
2022-11-07T03:38:16.245Z,17.52
2022-11-07T03:43:19.027Z,16.80
2022-11-07T03:48:21.636Z,21.67
2022-11-07T03:53:26.026Z,17.27
2022-11-07T03:58:28.970Z,21.47
2022-11-07T04:03:32.374Z,18.58
2022-11-07T04:08:35.373Z,15.77
2022-11-07T04:13:56.729Z,16.92
2022-11-07T04:19:01.810Z,18.75
2022-11-07T04:24:04.693Z,19.57
2022-11-07T04:29:07.323Z,21.52
2022-11-07T04:34:10.024Z,29.47
2022-11-07T04:39:12.656Z,17.92
2022-11-07T04:44:15.359Z,27.02
2022-11-07T04:49:18.665Z,19.03
2022-11-07T04:54:21.543Z,28.80
2022-11-07T04:59:24.324Z,19.03
2022-11-07T05:04:27.074Z,22.75
2022-11-07T05:09:30.322Z,19.60
2022-11-07T05:14:32.970Z,16.23
2022-11-07T05:19:35.584Z,17.48
2022-11-07T05:24:38.923Z,22.57
2022-11-07T05:29:41.584Z,18.52
2022-11-07T05:34:44.868Z,19.20
2022-11-07T05:39:52.370Z,18.20
2022-11-07T05:44:57.386Z,21.55
2022-11-07T05:49:59.954Z,20.97
2022-11-07T05:55:03.216Z,22.15
2022-11-07T06:00:06.763Z,24.15
2022-11-07T06:05:14.844Z,27.67
2022-11-07T06:10:17.668Z,32.00
2022-11-07T06:15:20.383Z,22.83
2022-11-07T06:20:23.154Z,24.90
2022-11-07T06:25:26.889Z,22.30
2022-11-07T06:30:30.074Z,26.37
2022-11-07T06:35:33.354Z,22.48
2022-11-07T06:40:36.425Z,19.20
2022-11-07T06:45:39.303Z,17.92
2022-11-07T06:50:42.208Z,21.10
2022-11-07T06:55:44.938Z,17.40
2022-11-07T07:00:47.962Z,22.20
2022-11-07T07:05:50.755Z,17.93
2022-11-07T07:10:53.553Z,19.95
2022-11-07T07:15:57.586Z,19.38
2022-11-07T07:21:10.475Z,17.93
2022-11-07T07:26:15.990Z,17.88
2022-11-07T07:31:26.031Z,17.73
2022-11-07T07:36:29.572Z,21.88
2022-11-07T07:41:37.536Z,23.48
2022-11-07T07:46:43.080Z,20.30
2022-11-07T07:51:45.728Z,21.58
2022-11-07T07:56:48.406Z,23.13
2022-11-07T08:01:56.636Z,24.90
2022-11-07T08:07:00.082Z,84.40
2022-11-07T08:12:09.066Z,34.00
2022-11-07T08:17:11.936Z,52.92
2022-11-07T08:22:14.765Z,35.53
2022-11-07T08:27:17.454Z,29.42
2022-11-07T08:32:20.305Z,30.58
2022-11-07T08:37:23.794Z,23.67
2022-11-07T08:42:26.595Z,18.25
2022-11-07T08:47:29.551Z,16.73
2022-11-07T08:52:32.472Z,14.25
2022-11-07T08:57:35.333Z,15.77
2022-11-07T09:03:17.970Z,15.63
2022-11-07T09:08:01.045Z,16.67
2022-11-07T09:13:03.916Z,21.07
2022-11-07T09:18:07.643Z,19.13
2022-11-07T09:23:10.378Z,20.42
2022-11-07T09:28:14.294Z,19.63
2022-11-07T09:33:17.443Z,22.00
2022-11-07T09:38:20.856Z,26.23
2022-11-07T09:43:48.248Z,24.42
2022-11-07T09:49:16.028Z,21.65
2022-11-07T09:54:23.036Z,20.53
2022-11-07T09:59:39.658Z,23.30
2022-11-07T10:04:43.688Z,21.13
2022-11-07T10:10:00.648Z,22.40
2022-11-07T10:15:30.604Z,22.48
2022-11-07T10:20:39.808Z,23.10
2022-11-07T10:25:59.479Z,18.05
2022-11-07T10:31:05.376Z,22.27
2022-11-07T10:36:26.211Z,22.33
2022-11-07T10:41:32.057Z,18.15
2022-11-07T10:46:40.885Z,23.03
2022-11-07T10:51:44.155Z,18.85
2022-11-07T10:56:50.796Z,17.60
2022-11-07T11:01:55.579Z,19.38
2022-11-07T11:07:04.401Z,15.95
2022-11-07T11:12:14.194Z,16.53
2022-11-07T11:17:28.843Z,14.23
2022-11-07T11:22:31.785Z,14.33
2022-11-07T11:27:35.857Z,14.05
2022-11-07T11:32:43.149Z,11.13
2022-11-07T11:37:54.009Z,13.20
2022-11-07T11:43:21.784Z,11.57
2022-11-07T11:48:29.023Z,8.83
2022-11-07T11:53:31.775Z,10.27
2022-11-07T11:58:43.324Z,10.70
2022-11-07T12:04:08.337Z,7.93
2022-11-07T12:09:33.358Z,8.90
2022-11-07T12:15:13.125Z,9.13
2022-11-07T12:20:31.463Z,8.27
2022-11-07T12:25:49.629Z,9.20
2022-11-07T12:31:07.517Z,6.17
2022-11-07T12:36:48.254Z,10.07
2022-11-07T12:41:53.907Z,8.63
2022-11-07T12:47:02.967Z,7.03
2022-11-07T12:52:33.339Z,6.25
2022-11-07T12:57:38.874Z,7.17
2022-11-07T13:03:13.446Z,6.32
2022-11-07T13:08:37.065Z,6.73
2022-11-07T13:14:22.716Z,5.63
2022-11-07T13:19:34.155Z,5.82
2022-11-07T13:25:17.585Z,6.37
2022-11-07T13:30:22.360Z,5.30
2022-11-07T13:35:31.323Z,5.47
2022-11-07T13:40:41.724Z,6.18
2022-11-07T13:45:49.136Z,6.68
2022-11-07T13:51:20.902Z,5.67
2022-11-07T13:56:43.374Z,5.97
2022-11-07T14:01:46.317Z,6.03
2022-11-07T14:06:51.481Z,6.53
2022-11-07T14:11:54.558Z,6.38
2022-11-07T14:17:00.605Z,6.60
2022-11-07T14:22:03.608Z,6.20
2022-11-07T14:27:13.790Z,4.70
2022-11-07T14:32:17.850Z,4.95
2022-11-07T14:37:24.686Z,6.78
2022-11-07T14:42:27.639Z,8.83
2022-11-07T14:47:32.964Z,6.80
2022-11-07T14:52:38.142Z,6.13
2022-11-07T14:57:41.359Z,8.90
2022-11-07T15:02:47.247Z,7.57
2022-11-07T15:07:50.751Z,6.77
2022-11-07T15:12:59.630Z,7.18
2022-11-07T15:18:07.171Z,6.80
2022-11-07T15:23:13.201Z,7.88
2022-11-07T15:28:19.146Z,7.72
2022-11-07T15:33:23.475Z,8.77
2022-11-07T15:38:28.605Z,7.85
2022-11-07T15:43:31.424Z,7.27
2022-11-07T15:48:41.043Z,8.07
2022-11-07T15:53:44.418Z,9.45
2022-11-07T15:58:47.298Z,10.20
2022-11-07T16:03:50.010Z,9.93
2022-11-07T16:08:53.065Z,9.20
2022-11-07T16:14:14.879Z,9.68
2022-11-07T16:19:22.152Z,13.00
2022-11-07T16:24:25.035Z,10.80
2022-11-07T16:29:27.786Z,11.82
2022-11-07T16:34:30.395Z,13.17
2022-11-07T16:39:33.187Z,13.73
2022-11-07T16:44:35.970Z,19.65
2022-11-07T16:49:39.564Z,12.70
2022-11-07T16:54:42.834Z,15.05
2022-11-07T16:59:46.688Z,21.87
2022-11-07T17:04:50.954Z,22.35
2022-11-07T17:09:54.444Z,22.55
2022-11-07T17:14:57.436Z,19.27
2022-11-07T17:20:00.364Z,20.33
2022-11-07T17:25:03.194Z,21.50
2022-11-07T17:30:08.634Z,20.73
2022-11-07T17:35:31.294Z,19.02
2022-11-07T17:40:35.595Z,26.03
2022-11-07T17:45:38.929Z,23.23
2022-11-07T17:50:44.286Z,24.73
2022-11-07T17:55:47.176Z,29.13
2022-11-07T18:00:50.120Z,21.42
2022-11-07T18:05:53.228Z,20.63
2022-11-07T18:11:02.095Z,21.55
2022-11-07T18:16:17.138Z,13.03
2022-11-07T18:21:20.589Z,17.13
2022-11-07T18:26:32.330Z,12.77
2022-11-07T18:31:36.783Z,15.93
2022-11-07T18:36:40.904Z,16.25
2022-11-07T18:41:44.666Z,12.13
2022-11-07T18:46:48.339Z,13.43
2022-11-07T18:51:51.514Z,13.57
2022-11-07T18:56:54.439Z,13.53
2022-11-07T19:01:57.209Z,15.35
2022-11-07T19:07:00.023Z,14.70
2022-11-07T19:12:03.247Z,16.30
2022-11-07T19:17:06.013Z,13.35
2022-11-07T19:22:12.814Z,14.10
2022-11-07T19:27:15.871Z,15.60
2022-11-07T19:32:19.151Z,16.93
2022-11-07T19:37:21.914Z,12.30
2022-11-07T19:42:28.964Z,16.23
2022-11-07T19:47:32.939Z,13.60
2022-11-07T19:52:35.920Z,10.13
2022-11-07T19:57:38.697Z,13.43
2022-11-07T20:02:44.791Z,11.43
2022-11-07T20:07:50.281Z,12.38
2022-11-07T20:12:57.107Z,9.90
2022-11-07T20:17:59.725Z,8.63
2022-11-07T20:23:02.555Z,8.97
2022-11-07T20:28:05.261Z,12.27
2022-11-07T20:33:08.103Z,11.20
2022-11-07T20:38:10.854Z,10.77
2022-11-07T20:43:13.810Z,12.85
2022-11-07T20:48:17.451Z,11.33
2022-11-07T20:53:20.651Z,11.85
2022-11-07T20:58:23.711Z,11.43
2022-11-07T21:03:26.536Z,9.67
2022-11-07T21:08:31.991Z,11.85
2022-11-07T21:13:39.426Z,11.53
2022-11-07T21:18:42.797Z,12.73
2022-11-07T21:23:46.053Z,11.75
2022-11-07T21:28:49.102Z,12.10
2022-11-07T21:33:52.661Z,12.65
2022-11-07T21:38:59.847Z,13.37
2022-11-07T21:44:02.976Z,12.82
2022-11-07T21:49:06.546Z,10.68
2022-11-07T21:54:10.824Z,12.57
2022-11-07T21:59:13.644Z,12.15
2022-11-07T22:04:17.103Z,10.87
2022-11-07T22:09:21.607Z,14.57
2022-11-07T22:14:24.464Z,12.32
2022-11-07T22:19:27.304Z,12.53
2022-11-07T22:24:30.149Z,11.40
2022-11-07T22:29:33.000Z,10.00
2022-11-07T22:34:35.805Z,14.57
2022-11-07T22:39:38.494Z,14.40
2022-11-07T22:44:41.179Z,12.97
2022-11-07T22:49:43.864Z,10.40
2022-11-07T22:54:46.563Z,12.43
2022-11-07T22:59:49.225Z,12.00
2022-11-07T23:04:51.904Z,10.68
2022-11-07T23:09:59.598Z,9.63
2022-11-07T23:15:03.926Z,7.43
2022-11-07T23:21:02.795Z,10.97
2022-11-07T23:26:17.232Z,8.68
2022-11-07T23:31:20.415Z,11.35
2022-11-07T23:36:23.183Z,8.33
2022-11-07T23:41:25.823Z,9.35
2022-11-07T23:46:47.106Z,11.67
2022-11-07T23:51:49.830Z,15.05
2022-11-07T23:56:52.407Z,10.35
